Time;durP1;ratioP1;P1;durP2;ratioP2;P2;SDS_P1;SDS_P2;PMS_P1;PMS_P2;Temp;Humidity;BMP_temperature;BMP_pressure;BME280_temperature;BME280_humidity;BME280_pressure;Samples;Min_cycle;Max_cycle;Signal;HPM_P1;HPM_P2
2024/01/08 00:01:39;;;;;;;26.52;17.35;;;;;;;8.34;99.98;100196.38;4979985;28;20049;-79
2024/01/08 00:04:08;;;;;;;22.00;16.25;;;;;;;8.41;99.11;100206.47;4972040;28;20655;-78
2024/01/08 00:06:38;;;;;;;20.90;16.77;;;;;;;7.88;99.19;100115.69;4970455;28;20582;-79
2024/01/08 00:09:05;;;;;;;24.65;17.92;;;;;;;8.40;99.41;100196.84;4964626;28;20321;-79
2024/01/08 00:11:32;;;;;;;21.17;17.45;;;;;;;8.40;99.52;100202.13;4997472;28;20462;-79
2024/01/08 00:14:06;;;;;;;23.33;16.65;;;;;;;8.44;99.07;100201.72;4958616;28;20116;-79
2024/01/08 00:16:37;;;;;;;26.67;17.20;;;;;;;8.40;98.71;100199.47;4944991;28;20768;-80
2024/01/08 00:19:14;;;;;;;22.27;17.20;;;;;;;8.07;99.18;100151.16;4972971;28;20058;-79
2024/01/08 00:21:46;;;;;;;23.85;17.83;;;;;;;8.39;99.05;100197.78;4971933;28;20334;-79
2024/01/08 00:24:18;;;;;;;27.45;17.60;;;;;;;8.24;98.87;100174.34;4930404;28;20046;-78
2024/01/08 00:26:51;;;;;;;23.40;17.98;;;;;;;8.27;99.05;100195.22;4991414;28;20304;-79
2024/01/08 00:29:29;;;;;;;24.58;17.58;;;;;;;8.21;99.64;100185.19;4991932;28;20615;-78
2024/01/08 00:31:56;;;;;;;26.02;17.85;;;;;;;8.20;100.00;100183.50;5002812;28;20057;-78
2024/01/08 00:34:24;;;;;;;25.35;18.30;;;;;;;8.26;99.92;100188.25;4980751;28;20494;-77
2024/01/08 00:36:57;;;;;;;24.05;17.08;;;;;;;8.16;99.76;100178.63;4936029;28;20459;-79
2024/01/08 00:39:27;;;;;;;26.48;17.08;;;;;;;8.12;100.00;100175.38;4944014;28;20144;-79
2024/01/08 00:42:01;;;;;;;22.73;17.02;;;;;;;7.89;100.00;100149.09;5013070;28;20080;-79
2024/01/08 00:44:31;;;;;;;20.48;16.75;;;;;;;8.32;100.00;100219.47;4989143;28;20244;-80
2024/01/08 00:47:02;;;;;;;25.95;17.05;;;;;;;7.91;99.95;100141.91;4966323;28;20049;-78
2024/01/08 00:49:34;;;;;;;22.38;17.27;;;;;;;7.60;99.59;100090.81;4979933;28;20049;-79
2024/01/08 00:52:10;;;;;;;21.42;17.20;;;;;;;8.14;99.35;100190.16;4969029;28;20049;-78
2024/01/08 00:54:37;;;;;;;23.40;18.25;;;;;;;8.33;99.59;100221.16;4990606;28;20058;-78
2024/01/08 00:57:04;;;;;;;22.25;16.55;;;;;;;8.23;99.47;100214.97;4986072;28;20524;-79
2024/01/08 00:59:34;;;;;;;20.77;16.75;;;;;;;8.16;99.48;100202.41;4965420;28;20470;-77
2024/01/08 01:02:00;;;;;;;25.17;18.15;;;;;;;8.28;99.41;100228.66;4980414;28;20089;-79
2024/01/08 01:04:30;;;;;;;23.42;18.15;;;;;;;8.28;99.41;100225.16;4983491;28;20108;-77
2024/01/08 01:06:57;;;;;;;22.40;17.75;;;;;;;8.13;99.90;100209.63;4976011;28;20141;-78
2024/01/08 01:09:33;;;;;;;22.58;18.35;;;;;;;8.39;99.19;100235.66;4972113;28;20055;-79
2024/01/08 01:12:05;;;;;;;21.88;16.98;;;;;;;8.27;99.31;100219.00;4988779;28;20049;-79
2024/01/08 01:14:32;;;;;;;26.60;19.67;;;;;;;8.20;99.26;100209.94;5008739;28;20076;-78
2024/01/08 01:17:00;;;;;;;26.65;19.83;;;;;;;8.13;99.15;100195.56;4985643;28;20076;-79
2024/01/08 01:19:28;;;;;;;24.00;18.35;;;;;;;8.30;99.71;100231.13;4972722;28;20049;-78
2024/01/08 01:21:55;;;;;;;21.50;17.70;;;;;;;8.06;99.29;100197.91;4990151;28;20045;-78
2024/01/08 01:24:22;;;;;;;25.60;18.50;;;;;;;8.23;99.72;100222.91;4981744;28;20165;-76
2024/01/08 01:26:51;;;;;;;21.90;16.77;;;;;;;8.39;99.12;100233.00;5005312;28;20098;-78
2024/01/08 01:29:21;;;;;;;24.42;18.90;;;;;;;8.29;98.72;100218.91;5002655;28;20059;-78
2024/01/08 01:31:48;;;;;;;22.20;17.95;;;;;;;8.23;98.69;100214.97;4997786;28;20061;-79
2024/01/08 01:34:17;;;;;;;24.13;17.55;;;;;;;8.40;98.39;100231.22;4985761;28;20172;-79
2024/01/08 01:36:45;;;;;;;24.63;16.60;;;;;;;8.19;98.48;100213.56;4991292;28;20366;-79
2024/01/08 01:39:15;;;;;;;22.50;17.55;;;;;;;8.31;98.86;100241.59;4980717;28;20555;-79
2024/01/08 01:41:42;;;;;;;21.02;17.23;;;;;;;8.24;99.82;100240.44;4969441;28;20712;-78
2024/01/08 01:44:09;;;;;;;21.42;17.95;;;;;;;7.81;99.05;100167.41;5002842;28;20045;-77
2024/01/08 01:46:48;;;;;;;22.67;16.52;;;;;;;8.36;98.99;100251.78;5005023;28;20332;-76
2024/01/08 01:49:20;;;;;;;23.45;17.98;;;;;;;7.58;98.81;100129.72;4967105;28;20077;-77
2024/01/08 01:51:54;;;;;;;21.60;17.60;;;;;;;8.30;98.97;100247.88;4955852;28;20576;-78
2024/01/08 01:54:27;;;;;;;18.15;15.65;;;;;;;8.39;98.34;100240.09;4910346;28;20415;-78
2024/01/08 01:56:58;;;;;;;24.58;15.40;;;;;;;8.33;98.80;100252.88;4977559;28;20048;-78
2024/01/08 01:59:28;;;;;;;20.52;16.33;;;;;;;8.02;98.45;100200.94;4972521;28;20654;-79
2024/01/08 02:02:00;;;;;;;21.85;17.30;;;;;;;8.20;98.07;100240.81;4988056;28;20161;-80
2024/01/08 02:04:33;;;;;;;21.20;16.80;;;;;;;8.30;98.72;100247.00;4939373;28;20466;-79
2024/01/08 02:07:08;;;;;;;18.50;15.73;;;;;;;8.31;98.64;100249.53;4965076;28;20061;-79
2024/01/08 02:09:41;;;;;;;22.55;16.88;;;;;;;8.37;98.01;100252.63;4938774;28;20280;-80
2024/01/08 02:12:16;;;;;;;20.38;16.45;;;;;;;8.12;97.90;100210.59;4979592;28;20045;-77
2024/01/08 02:14:44;;;;;;;19.92;16.27;;;;;;;8.22;98.88;100239.72;5018126;28;20294;-78
2024/01/08 02:17:23;;;;;;;21.48;16.27;;;;;;;8.33;98.30;100234.38;4993677;28;20155;-77
2024/01/08 02:19:49;;;;;;;20.45;16.38;;;;;;;8.15;98.02;100214.78;4983572;28;20103;-79
2024/01/08 02:22:16;;;;;;;18.58;15.20;;;;;;;8.22;98.80;100239.72;4980077;28;20184;-79
2024/01/08 02:24:43;;;;;;;20.30;15.35;;;;;;;7.97;98.49;100193.38;4957607;28;20075;-78
2024/01/08 02:27:14;;;;;;;19.10;15.75;;;;;;;8.16;98.56;100234.97;4976851;28;20057;-78
2024/01/08 02:29:41;;;;;;;17.95;15.30;;;;;;;8.16;98.20;100242.91;4972311;28;20044;-79
2024/01/08 02:32:10;;;;;;;20.00;15.38;;;;;;;7.91;98.77;100207.97;4947084;28;20383;-78
2024/01/08 02:34:37;;;;;;;22.83;15.63;;;;;;;8.16;98.39;100250.84;4948908;28;20413;-77
2024/01/08 02:37:04;;;;;;;17.17;14.50;;;;;;;8.20;98.64;100256.69;4949858;28;20133;-76
2024/01/08 02:39:36;;;;;;;20.23;15.48;;;;;;;8.11;98.51;100250.41;4969759;28;20393;-79
2024/01/08 02:42:05;;;;;;;20.10;15.80;;;;;;;8.03;98.50;100239.59;5016209;28;20053;-81
2024/01/08 02:44:32;;;;;;;21.10;15.35;;;;;;;8.06;99.01;100261.34;4988904;28;20056;-78
2024/01/08 02:47:01;;;;;;;18.50;15.27;;;;;;;8.19;99.05;100277.03;4981078;28;20183;-79
2024/01/08 02:49:28;;;;;;;18.17;15.60;;;;;;;8.02;99.38;100251.16;4964836;28;20445;-77
2024/01/08 02:51:54;;;;;;;20.05;15.23;;;;;;;8.23;99.13;100280.22;4969645;28;20428;-76
2024/01/08 02:54:23;;;;;;;19.77;14.63;;;;;;;8.21;98.72;100279.53;4965971;28;20386;-79
2024/01/08 02:56:50;;;;;;;18.90;14.77;;;;;;;8.19;99.05;100279.66;4986440;28;20056;-80
2024/01/08 02:59:17;;;;;;;21.40;15.73;;;;;;;8.16;98.77;100266.72;4995553;28;20629;-79
2024/01/08 03:01:44;;;;;;;21.65;16.45;;;;;;;8.18;98.99;100272.72;4981160;28;20401;-78
2024/01/08 03:04:12;;;;;;;19.00;15.35;;;;;;;8.05;99.17;100245.59;4976245;28;20104;-78
2024/01/08 03:06:39;;;;;;;17.48;15.07;;;;;;;8.09;99.12;100249.69;4967168;28;20054;-78
2024/01/08 03:09:06;;;;;;;18.73;14.45;;;;;;;8.23;98.66;100267.88;4941161;28;20045;-78
2024/01/08 03:11:33;;;;;;;19.92;14.23;;;;;;;8.19;98.87;100266.44;4962995;28;20054;-78
2024/01/08 03:14:00;;;;;;;20.60;16.40;;;;;;;8.10;98.08;100254.00;4978086;28;20079;-78
2024/01/08 03:16:26;;;;;;;18.05;14.70;;;;;;;8.19;98.73;100274.38;4993511;28;20453;-78
2024/01/08 03:18:53;;;;;;;17.15;14.43;;;;;;;7.98;98.82;100242.63;4988203;28;20686;-78
2024/01/08 03:21:21;;;;;;;16.70;14.43;;;;;;;8.19;98.52;100277.03;4959323;28;20075;-79
2024/01/08 03:23:47;;;;;;;20.00;14.48;;;;;;;8.12;99.17;100284.63;5004954;28;20080;-80
2024/01/08 03:26:16;;;;;;;17.58;15.63;;;;;;;8.11;99.46;100279.47;4992153;28;20392;-78
2024/01/08 03:28:43;;;;;;;19.98;15.25;;;;;;;7.86;99.72;100247.16;5018211;28;20492;-78
2024/01/08 03:31:09;;;;;;;16.13;13.77;;;;;;;8.03;99.50;100261.59;4989964;28;20141;-79
2024/01/08 03:33:37;;;;;;;17.45;14.32;;;;;;;8.14;99.84;100271.28;4979467;28;20054;-80
2024/01/08 03:36:08;;;;;;;20.23;15.45;;;;;;;8.23;98.77;100278.44;4988434;28;20045;-78
2024/01/08 03:38:35;;;;;;;17.27;14.32;;;;;;;8.02;97.73;100252.00;4979202;28;20275;-79
2024/01/08 03:41:03;;;;;;;20.05;15.27;;;;;;;8.20;98.04;100289.25;4986100;28;20049;-78
2024/01/08 03:43:31;;;;;;;18.10;14.35;;;;;;;8.33;97.92;100294.38;4967682;28;20081;-80
2024/01/08 03:45:59;;;;;;;18.30;15.43;;;;;;;7.58;97.73;100194.94;4956523;28;20140;-80
2024/01/08 03:48:26;;;;;;;16.17;14.43;;;;;;;8.12;99.41;100303.13;4981861;28;20045;-78
2024/01/08 03:50:54;;;;;;;18.63;15.52;;;;;;;7.57;99.14;100201.16;4972776;28;20157;-77
2024/01/08 03:53:21;;;;;;;19.52;14.88;;;;;;;8.06;99.22;100281.66;4992788;28;20398;-79
2024/01/08 03:55:48;;;;;;;18.30;15.20;;;;;;;7.92;98.87;100254.56;4986515;28;20068;-79
2024/01/08 03:58:14;;;;;;;23.92;17.05;;;;;;;8.12;99.31;100275.84;4990949;28;20046;-78
2024/01/08 04:00:41;;;;;;;19.20;15.43;;;;;;;8.14;98.44;100289.78;4974462;28;20509;-79
2024/01/08 04:03:10;;;;;;;19.77;15.75;;;;;;;8.14;99.51;100300.38;4977421;28;20506;-79
2024/01/08 04:05:38;;;;;;;17.83;15.13;;;;;;;8.01;99.12;100278.53;4972324;28;20082;-78
2024/01/08 04:08:05;;;;;;;18.48;16.23;;;;;;;8.15;99.14;100291.44;4978168;28;20061;-79
2024/01/08 04:10:32;;;;;;;19.80;16.95;;;;;;;8.02;98.91;100280.25;5001132;28;20451;-80
2024/01/08 04:12:59;;;;;;;18.83;16.08;;;;;;;8.13;99.31;100306.59;5009306;28;20368;-79
2024/01/08 04:15:26;;;;;;;22.17;17.38;;;;;;;8.18;98.70;100303.56;5003224;28;20057;-78
2024/01/08 04:17:52;;;;;;;20.75;16.60;;;;;;;8.14;99.13;100301.19;4962031;28;20060;-79
2024/01/08 04:20:19;;;;;;;19.67;15.57;;;;;;;8.19;99.70;100316.69;4997502;28;20475;-79
2024/01/08 04:22:49;;;;;;;19.88;16.88;;;;;;;8.27;99.29;100310.75;4988171;28;20045;-79
2024/01/08 04:25:16;;;;;;;23.95;17.38;;;;;;;7.85;98.50;100249.91;4991659;28;20064;-78
2024/01/08 04:27:45;;;;;;;20.15;16.65;;;;;;;8.05;99.03;100296.66;5023102;28;20047;-79
2024/01/08 04:30:13;;;;;;;22.40;17.60;;;;;;;8.12;99.67;100329.56;5002232;28;20122;-79
2024/01/08 04:32:40;;;;;;;21.75;18.08;;;;;;;8.16;99.98;100335.47;5002529;28;20078;-79
2024/01/08 04:35:15;;;;;;;22.35;17.98;;;;;;;8.13;99.86;100319.81;4969700;28;20049;-81
2024/01/08 04:37:49;;;;;;;21.60;17.75;;;;;;;8.03;99.50;100300.41;4970201;28;20049;-80
2024/01/08 04:40:18;;;;;;;23.02;17.65;;;;;;;8.08;99.15;100332.59;4990443;28;20053;-79
2024/01/08 04:42:44;;;;;;;23.13;18.92;;;;;;;8.17;99.85;100342.41;5011848;28;20136;-81
2024/01/08 04:45:14;;;;;;;24.25;17.88;;;;;;;8.18;99.71;100346.75;5018525;28;20078;-79
2024/01/08 04:47:43;;;;;;;23.80;18.58;;;;;;;8.10;99.03;100328.03;5000431;28;20046;-78
2024/01/08 04:50:10;;;;;;;21.48;18.48;;;;;;;7.95;99.30;100316.91;4990530;28;20045;-80
2024/01/08 04:52:37;;;;;;;23.95;18.48;;;;;;;8.11;99.36;100349.06;4981817;28;20045;-77
2024/01/08 04:55:04;;;;;;;23.08;18.25;;;;;;;8.07;99.99;100341.50;4990951;28;20136;-78
2024/01/08 04:57:31;;;;;;;22.10;17.13;;;;;;;8.00;100.00;100341.16;5013672;28;20562;-79
2024/01/08 04:59:58;;;;;;;22.77;18.63;;;;;;;8.07;100.00;100349.44;4996238;28;20227;-80
2024/01/08 05:02:24;;;;;;;24.05;18.02;;;;;;;8.08;100.00;100356.38;4997917;28;20574;-78
2024/01/08 05:04:52;;;;;;;22.35;18.77;;;;;;;8.17;99.69;100363.56;4990308;28;20366;-79
2024/01/08 05:07:19;;;;;;;20.83;18.55;;;;;;;8.08;99.79;100348.44;4991709;28;20056;-78
2024/01/08 05:09:45;;;;;;;28.23;19.17;;;;;;;8.16;99.42;100356.59;5000909;28;20119;-80
2024/01/08 05:12:12;;;;;;;21.45;17.77;;;;;;;7.77;99.25;100295.50;5018420;28;20387;-79
2024/01/08 05:14:40;;;;;;;21.98;18.95;;;;;;;8.20;99.31;100379.16;5003950;28;20080;-79
2024/01/08 05:17:07;;;;;;;23.10;19.70;;;;;;;8.17;99.25;100368.84;4989568;28;20076;-80
2024/01/08 05:19:34;;;;;;;25.02;20.88;;;;;;;8.14;99.56;100366.47;4989291;28;20529;-80
2024/01/08 05:22:00;;;;;;;21.85;19.40;;;;;;;8.19;99.24;100371.38;4996510;28;20555;-78
2024/01/08 05:24:27;;;;;;;24.02;19.88;;;;;;;8.20;99.63;100379.16;4991533;28;20128;-78
2024/01/08 05:26:54;;;;;;;21.05;18.60;;;;;;;8.16;99.39;100372.47;4993372;28;20057;-79
2024/01/08 05:29:24;;;;;;;24.00;19.80;;;;;;;8.20;99.27;100379.16;4976959;28;20481;-79
2024/01/08 05:31:51;;;;;;;24.50;19.85;;;;;;;8.20;99.58;100384.47;4981394;28;20064;-81
2024/01/08 05:34:18;;;;;;;23.92;20.30;;;;;;;8.20;99.00;100378.34;4987010;28;20498;-79
2024/01/08 05:36:45;;;;;;;26.88;20.75;;;;;;;8.15;99.14;100384.00;4987492;28;20490;-79
2024/01/08 05:39:12;;;;;;;24.23;19.92;;;;;;;8.06;98.98;100368.91;4957981;28;20046;-79
2024/01/08 05:41:40;;;;;;;23.55;20.50;;;;;;;8.08;99.24;100370.47;5021222;28;20480;-78
2024/01/08 05:44:08;;;;;;;26.60;21.38;;;;;;;8.01;99.45;100368.44;5016550;28;20057;-79
2024/01/08 05:46:40;;;;;;;25.90;20.50;;;;;;;7.21;99.29;100232.28;5013492;28;20485;-78
2024/01/08 05:49:07;;;;;;;24.00;20.00;;;;;;;8.16;99.39;100388.34;4979561;28;20565;-80
2024/01/08 05:51:34;;;;;;;27.45;22.00;;;;;;;7.89;100.00;100333.28;4993156;28;20461;-79
2024/01/08 05:54:07;;;;;;;26.70;21.35;;;;;;;8.24;99.94;100385.91;4981380;28;20081;-80
2024/01/08 05:56:34;;;;;;;25.63;21.02;;;;;;;7.83;100.00;100324.03;4991858;28;20049;-80
2024/01/08 05:59:07;;;;;;;23.40;20.88;;;;;;;8.14;100.00;100390.25;4988806;28;20048;-79
2024/01/08 06:01:34;;;;;;;28.35;20.33;;;;;;;8.05;100.00;100380.44;4992938;28;20521;-78
2024/01/08 06:04:01;;;;;;;31.00;26.30;;;;;;;7.42;100.00;100288.59;4990860;28;20076;-78
2024/01/08 06:06:28;;;;;;;28.15;22.02;;;;;;;8.11;100.00;100395.81;5003966;28;20130;-80
2024/01/08 06:08:55;;;;;;;25.98;21.95;;;;;;;8.25;99.79;100427.25;4988534;28;20052;-78
2024/01/08 06:11:24;;;;;;;32.13;22.85;;;;;;;8.04;99.98;100399.91;5015655;28;20574;-80
2024/01/08 06:13:51;;;;;;;29.95;22.98;;;;;;;8.24;100.00;100436.13;5023866;28;20399;-79
2024/01/08 06:16:18;;;;;;;27.35;20.83;;;;;;;8.14;100.00;100416.72;4989543;28;20492;-78
2024/01/08 06:18:45;;;;;;;32.17;22.48;;;;;;;8.30;99.42;100440.06;4987495;28;20547;-80
2024/01/08 06:21:12;;;;;;;26.58;20.70;;;;;;;7.43;99.30;100300.88;5001197;28;20053;-78
2024/01/08 06:23:39;;;;;;;29.30;21.67;;;;;;;8.25;99.14;100424.63;5022694;28;20048;-80
2024/01/08 06:26:07;;;;;;;26.13;21.85;;;;;;;8.36;98.75;100450.16;4993884;28;20045;-78
2024/01/08 06:28:34;;;;;;;28.70;21.48;;;;;;;8.27;98.77;100449.09;5006508;28;20049;-80
2024/01/08 06:31:04;;;;;;;27.88;21.88;;;;;;;8.27;99.27;100459.69;4996164;28;20042;-78
2024/01/08 06:33:35;;;;;;;27.35;22.35;;;;;;;8.22;99.39;100445.16;4991796;28;20060;-79
2024/01/08 06:36:02;;;;;;;27.27;21.80;;;;;;;7.88;98.92;100380.00;4986768;28;20041;-80
2024/01/08 06:38:29;;;;;;;28.55;22.17;;;;;;;8.26;98.77;100442.16;5003541;28;20055;-77
2024/01/08 06:40:56;;;;;;;28.45;22.52;;;;;;;8.33;99.34;100447.78;4999575;28;20263;-79
2024/01/08 06:43:23;;;;;;;26.25;21.60;;;;;;;8.15;99.68;100434.25;5003108;28;20120;-78
2024/01/08 06:45:50;;;;;;;28.15;21.88;;;;;;;8.27;99.62;100433.25;4985532;28;20845;-80
2024/01/08 06:48:16;;;;;;;22.85;19.95;;;;;;;8.26;99.87;100436.03;5002222;28;20046;-77
2024/01/08 06:50:43;;;;;;;28.50;22.55;;;;;;;8.28;99.88;100445.50;4977962;28;20041;-78
2024/01/08 06:53:10;;;;;;;29.45;21.70;;;;;;;8.11;98.88;100411.69;5000208;28;20049;-79
2024/01/08 06:55:37;;;;;;;29.08;21.55;;;;;;;7.92;99.01;100388.53;4937891;28;20045;-77
2024/01/08 06:58:04;;;;;;;30.15;21.10;;;;;;;8.12;99.33;100439.78;4928918;28;20046;-78
2024/01/08 07:00:31;;;;;;;27.83;21.73;;;;;;;8.31;98.64;100466.41;4997231;28;20046;-78
2024/01/08 07:02:58;;;;;;;28.42;22.13;;;;;;;8.21;99.35;100462.84;5008804;28;20148;-78
2024/01/08 07:05:25;;;;;;;27.67;20.98;;;;;;;8.19;99.13;100458.66;4997581;28;20146;-77
2024/01/08 07:07:53;;;;;;;27.17;20.30;;;;;;;8.30;98.39;100464.75;5003557;28;20046;-78
2024/01/08 07:10:20;;;;;;;24.27;20.02;;;;;;;8.24;98.71;100467.03;5003616;28;20051;-78
2024/01/08 07:12:47;;;;;;;25.90;21.85;;;;;;;8.22;99.19;100474.25;5004648;28;20045;-78
2024/01/08 07:15:40;;;;;;;31.50;23.17;;;;;;;8.23;99.06;100474.16;4999730;28;20086;-79
2024/01/08 07:18:09;;;;;;;27.13;21.88;;;;;;;7.95;99.67;100437.66;4992129;28;20064;-78
2024/01/08 07:20:38;;;;;;;25.55;21.10;;;;;;;8.01;100.00;100447.72;4998754;28;20061;-78
2024/01/08 07:23:11;;;;;;;25.80;21.85;;;;;;;8.20;100.00;100478.81;5000428;28;20133;-79
2024/01/08 07:25:39;;;;;;;32.50;23.50;;;;;;;8.21;99.63;100473.44;4968548;28;20041;-78
2024/01/08 07:28:09;;;;;;;28.20;22.30;;;;;;;8.07;99.73;100465.75;5002306;28;20103;-78
2024/01/08 07:30:37;;;;;;;29.58;23.17;;;;;;;8.24;99.74;100485.56;4991184;28;20048;-81
2024/01/08 07:33:04;;;;;;;29.15;22.00;;;;;;;8.11;99.90;100475.13;4980306;28;20101;-82
2024/01/08 07:35:31;;;;;;;27.70;23.23;;;;;;;8.22;100.00;100488.31;4967729;28;20076;-79
2024/01/08 07:38:01;;;;;;;33.50;23.90;;;;;;;8.26;99.76;100500.34;4967903;28;20410;-82
2024/01/08 07:40:31;;;;;;;29.20;22.42;;;;;;;8.28;99.53;100500.22;5007594;28;20132;-80
2024/01/08 07:42:58;;;;;;;29.88;21.35;;;;;;;8.17;99.77;100482.56;4997169;28;20534;-80
2024/01/08 07:45:26;;;;;;;27.05;21.02;;;;;;;8.21;99.72;100497.22;4990840;28;20500;-81
2024/01/08 07:47:54;;;;;;;24.70;21.45;;;;;;;8.02;99.03;100452.06;4984537;28;20409;-81
2024/01/08 07:50:22;;;;;;;28.05;21.70;;;;;;;8.37;98.61;100506.56;4975757;28;20045;-80
2024/01/08 07:52:49;;;;;;;27.33;21.17;;;;;;;8.18;98.66;100492.19;4992687;28;20103;-81
2024/01/08 07:55:16;;;;;;;26.02;21.10;;;;;;;8.25;99.55;100519.81;4969701;28;20053;-80
2024/01/08 07:57:43;;;;;;;27.50;21.25;;;;;;;8.25;99.23;100519.81;4972584;28;20188;-80
2024/01/08 08:00:11;;;;;;;29.67;21.30;;;;;;;8.30;99.53;100538.81;4975630;28;20050;-79
2024/01/08 08:02:39;;;;;;;27.13;22.40;;;;;;;8.15;99.32;100513.56;4988379;28;20049;-79
2024/01/08 08:05:07;;;;;;;26.38;21.30;;;;;;;8.17;99.57;100506.34;4980324;28;20042;-78
2024/01/08 08:07:39;;;;;;;26.63;22.05;;;;;;;8.34;99.01;100540.22;4986056;28;20539;-80
2024/01/08 08:10:10;;;;;;;30.48;22.80;;;;;;;8.31;98.51;100539.63;4989243;28;20247;-80
2024/01/08 08:12:40;;;;;;;30.02;23.50;;;;;;;8.35;99.21;100565.72;5014287;28;20049;-79
2024/01/08 08:15:08;;;;;;;25.67;21.27;;;;;;;8.37;98.46;100559.47;4975749;28;20397;-79
2024/01/08 08:17:35;;;;;;;30.58;22.65;;;;;;;8.36;98.30;100553.34;4993813;28;20329;-79
2024/01/08 08:20:05;;;;;;;26.05;21.88;;;;;;;8.38;98.68;100563.81;4968823;28;20301;-80
2024/01/08 08:22:37;;;;;;;27.83;22.55;;;;;;;8.39;99.17;100578.69;4981896;28;20371;-78
2024/01/08 08:25:15;;;;;;;39.38;22.85;;;;;;;8.37;99.54;100575.31;4965572;28;20188;-80
2024/01/08 08:27:43;;;;;;;26.95;23.05;;;;;;;8.39;99.85;100589.28;5004812;28;20463;-79
2024/01/08 08:30:16;;;;;;;30.85;22.42;;;;;;;8.41;99.31;100592.69;4999768;28;20114;-78
2024/01/08 08:32:46;;;;;;;29.15;22.88;;;;;;;8.43;99.04;100585.47;5000367;28;20052;-80
2024/01/08 08:35:16;;;;;;;34.17;22.55;;;;;;;8.46;98.96;100591.34;4999976;28;20064;-79
2024/01/08 08:37:44;;;;;;;29.20;21.38;;;;;;;8.51;98.51;100605.03;5004758;28;20045;-78
2024/01/08 08:40:27;;;;;;;26.58;20.88;;;;;;;8.42;98.58;100589.88;4980118;28;20181;-79
2024/01/08 08:42:54;;;;;;;29.85;22.20;;;;;;;8.50;98.46;100613.94;5010818;28;20056;-80
2024/01/08 08:45:21;;;;;;;26.40;22.35;;;;;;;8.32;98.27;100578.34;4965738;28;20506;-79
2024/01/08 08:47:53;;;;;;;35.30;21.67;;;;;;;8.42;97.84;100589.06;4937528;28;20470;-78
2024/01/08 08:50:25;;;;;;;28.65;21.20;;;;;;;8.19;98.03;100562.63;4976003;28;20382;-80
2024/01/08 08:52:51;;;;;;;29.55;23.35;;;;;;;8.52;97.77;100621.78;4993826;28;20132;-80
2024/01/08 08:55:22;;;;;;;27.95;22.35;;;;;;;8.46;98.29;100627.53;4978324;28;20050;-79
2024/01/08 08:57:49;;;;;;;33.30;23.45;;;;;;;8.41;98.93;100619.97;4993890;28;20115;-80
2024/01/08 09:00:16;;;;;;;28.55;23.25;;;;;;;8.22;98.71;100596.75;4982236;28;20080;-79
2024/01/08 09:02:50;;;;;;;26.88;22.48;;;;;;;8.25;99.99;100591.22;4954257;28;20508;-80
2024/01/08 09:05:17;;;;;;;27.55;22.33;;;;;;;8.55;99.05;100637.41;5002366;28;20053;-79
2024/01/08 09:08:02;;;;;;;31.20;23.95;;;;;;;8.56;98.91;100639.91;4984497;28;20144;-80
2024/01/08 09:10:29;;;;;;;36.00;23.15;;;;;;;8.49;99.09;100622.00;4991195;28;20088;-79
2024/01/08 09:12:56;;;;;;;29.65;22.27;;;;;;;8.04;99.17;100553.25;5003750;28;20076;-80
2024/01/08 09:15:23;;;;;;;30.33;21.83;;;;;;;8.46;98.83;100627.53;4992898;28;20045;-79
2024/01/08 09:17:50;;;;;;;37.63;22.23;;;;;;;8.63;98.46;100645.56;4998140;28;20536;-80
2024/01/08 09:20:17;;;;;;;29.17;21.25;;;;;;;8.67;98.40;100662.88;4993873;28;20059;-80
2024/01/08 09:22:48;;;;;;;33.00;20.15;;;;;;;8.75;97.47;100668.38;4981508;28;20072;-80
2024/01/08 09:25:19;;;;;;;24.23;20.45;;;;;;;7.87;97.36;100526.34;4980062;28;20166;-80
2024/01/08 09:27:47;;;;;;;28.65;20.90;;;;;;;7.99;97.42;100550.16;4994858;28;20497;-78
2024/01/08 09:30:14;;;;;;;29.13;21.10;;;;;;;8.18;97.17;100587.38;5007476;28;20487;-80
2024/01/08 09:32:46;;;;;;;24.58;19.38;;;;;;;8.74;97.64;100672.00;4993128;28;20438;-80
2024/01/08 09:35:18;;;;;;;28.70;21.35;;;;;;;8.75;96.85;100681.63;4997246;28;20063;-79
2024/01/08 09:37:47;;;;;;;27.10;19.73;;;;;;;8.80;97.22;100688.38;4973500;28;20417;-79
2024/01/08 09:40:15;;;;;;;26.35;20.63;;;;;;;8.60;96.86;100651.09;4983517;28;20053;-78
2024/01/08 09:42:53;;;;;;;31.27;20.75;;;;;;;8.61;96.95;100647.47;4957347;28;20056;-79
2024/01/08 09:45:27;;;;;;;27.40;21.00;;;;;;;8.64;97.64;100651.69;4926566;28;20056;-80
2024/01/08 09:47:55;;;;;;;30.73;21.88;;;;;;;8.74;97.35;100652.66;4984376;28;20041;-79
2024/01/08 09:50:24;;;;;;;32.47;21.67;;;;;;;8.84;98.22;100668.63;4991535;28;20128;-80
2024/01/08 09:52:55;;;;;;;25.05;20.83;;;;;;;8.81;97.46;100650.31;4995189;28;20140;-80
2024/01/08 09:55:27;;;;;;;26.75;19.92;;;;;;;8.87;96.96;100663.91;4987377;28;20063;-80
2024/01/08 09:57:57;;;;;;;27.08;19.83;;;;;;;8.99;97.18;100677.97;4980759;28;20056;-79
2024/01/08 10:00:24;;;;;;;30.02;20.95;;;;;;;9.00;96.14;100674.34;4972064;28;20081;-80
2024/01/08 10:02:55;;;;;;;27.08;20.17;;;;;;;8.91;95.59;100664.53;4983299;28;20069;-79
2024/01/08 10:05:28;;;;;;;27.30;20.23;;;;;;;8.83;96.39;100646.59;4994262;28;20396;-79
2024/01/08 10:08:00;;;;;;;28.38;18.73;;;;;;;9.10;95.75;100685.91;4996728;28;20058;-80
2024/01/08 10:10:33;;;;;;;23.20;18.23;;;;;;;8.64;94.95;100589.03;4979759;28;20654;-79
2024/01/08 10:13:01;;;;;;;24.25;19.33;;;;;;;9.12;95.48;100681.28;5000974;28;20073;-79
2024/01/08 10:15:30;;;;;;;25.27;18.38;;;;;;;9.15;95.12;100678.41;4996173;28;20550;-80
2024/01/08 10:18:01;;;;;;;25.83;18.55;;;;;;;9.16;94.56;100668.66;5000549;28;20046;-78
2024/01/08 10:20:29;;;;;;;30.02;20.05;;;;;;;9.04;94.44;100651.13;4963905;28;20312;-80
2024/01/08 10:23:07;;;;;;;28.05;20.48;;;;;;;8.92;94.88;100643.19;4978884;28;20077;-79
2024/01/08 10:25:38;;;;;;;30.33;19.60;;;;;;;9.13;94.94;100675.06;4972214;28;20697;-80
2024/01/08 10:28:09;;;;;;;27.88;20.58;;;;;;;9.13;95.88;100677.69;4980120;28;20432;-82
2024/01/08 10:30:36;;;;;;;25.45;20.08;;;;;;;9.10;95.13;100658.56;4991359;28;20053;-81
2024/01/08 10:33:04;;;;;;;32.30;21.23;;;;;;;9.18;95.24;100666.72;4996539;28;20493;-80
2024/01/08 10:35:31;;;;;;;24.88;18.70;;;;;;;9.24;95.42;100682.09;4966337;28;20123;-80
2024/01/08 10:37:59;;;;;;;26.42;20.83;;;;;;;9.28;94.56;100683.53;4970578;28;20042;-80
2024/01/08 10:40:30;;;;;;;22.88;19.98;;;;;;;9.08;94.19;100640.16;5001855;28;20136;-81
2024/01/08 10:42:57;;;;;;;30.42;20.83;;;;;;;9.32;94.46;100684.97;5001580;28;20304;-80
2024/01/08 10:45:24;;;;;;;37.80;19.83;;;;;;;9.30;94.21;100691.38;4979589;28;20049;-80
2024/01/08 10:48:11;;;;;;;32.35;20.95;;;;;;;9.32;94.69;100690.28;5009192;28;20067;-78
2024/01/08 10:50:38;;;;;;;27.65;19.85;;;;;;;9.15;94.24;100665.19;4995978;28;20429;-81
2024/01/08 10:53:14;;;;;;;30.38;19.55;;;;;;;9.32;95.26;100687.63;4989423;28;20333;-80
2024/01/08 10:55:43;;;;;;;25.27;19.75;;;;;;;9.34;94.58;100676.88;4992903;28;20080;-80
2024/01/08 10:58:22;;;;;;;29.65;20.33;;;;;;;9.43;94.32;100680.59;5001588;28;20501;-80
2024/01/08 11:00:50;;;;;;;25.63;20.02;;;;;;;9.43;93.51;100681.44;4998290;28;20053;-79
2024/01/08 11:03:20;;;;;;;28.50;20.00;;;;;;;9.42;93.71;100685.06;4982978;28;20061;-80
2024/01/08 11:05:51;;;;;;;28.10;19.63;;;;;;;8.96;93.20;100610.22;4995377;28;20069;-80
2024/01/08 11:08:23;;;;;;;24.73;18.80;;;;;;;9.36;94.51;100680.25;4996813;28;20045;-79
2024/01/08 11:10:51;;;;;;;27.38;18.77;;;;;;;9.43;93.34;100689.38;4968408;28;20270;-79
2024/01/08 11:13:17;;;;;;;26.67;19.00;;;;;;;9.14;93.26;100637.00;4986041;28;20042;-79
2024/01/08 11:15:46;;;;;;;29.98;19.67;;;;;;;9.53;92.62;100686.81;4980404;28;20045;-81
2024/01/08 11:18:28;;;;;;;24.33;18.30;;;;;;;9.53;90.85;100687.66;4995054;28;20050;-81
2024/01/08 11:21:01;;;;;;;27.80;18.30;;;;;;;9.10;90.00;100617.03;4987171;28;20081;-80
2024/01/08 11:23:41;;;;;;;26.77;18.50;;;;;;;9.45;90.01;100681.31;5003827;28;20507;-80
2024/01/08 11:26:22;;;;;;;23.23;17.45;;;;;;;9.44;90.57;100683.09;4999091;28;20050;-81